Time;durP1;ratioP1;P1;durP2;ratioP2;P2;SDS_P1;SDS_P2;PMS_P1;PMS_P2;Temp;Humidity;BMP_temperature;BMP_pressure;BME280_temperature;BME280_humidity;BME280_pressure;Samples;Min_cycle;Max_cycle;Signal;HPM_P1;HPM_P2
2021/12/17 00:07:04;;;;;;;16.35;10.77;;;;;;;;;;5113080;28;20116;-81
2021/12/17 00:09:31;;;;;;;13.02;9.60;;;;;;;;;;5113308;28;20096;-79
2021/12/17 00:11:57;;;;;;;13.20;9.82;;;;;;;;;;5113197;28;20111;-79
2021/12/17 00:14:29;;;;;;;13.10;8.93;;;;;;;;;;5113088;28;20028;-80
2021/12/17 00:16:57;;;;;;;11.45;8.15;;;;;;;;;;5113282;28;20019;-83
2021/12/17 00:19:45;;;;;;;12.68;8.57;;;;;;;;;;5116919;28;20402;-85
2021/12/17 00:49:43;;;;;;;12.93;9.43;;;;;;;;;;5116493;28;20039;-85
2021/12/17 00:52:09;;;;;;;13.68;9.40;;;;;;;;;;5116131;28;20031;-81
2021/12/17 00:54:38;;;;;;;13.65;8.52;;;;;;;;;;5114719;28;20028;-83
2021/12/17 00:57:08;;;;;;;11.88;8.35;;;;;;;;;;5116027;28;20024;-86
2021/12/17 00:59:53;;;;;;;13.45;9.73;;;;;;;;;;5116076;28;20028;-82
2021/12/17 01:02:25;;;;;;;11.70;9.00;;;;;;;;;;5116197;28;20043;-82
2021/12/17 01:04:55;;;;;;;13.80;9.38;;;;;;;;;;5116155;28;20038;-82
2021/12/17 01:07:23;;;;;;;12.27;8.75;;;;;;;;;;5115904;28;20550;-77
2021/12/17 01:09:51;;;;;;;14.20;9.00;;;;;;;;;;5116027;28;20039;-82
2021/12/17 01:12:17;;;;;;;14.05;9.60;;;;;;;;;;5115922;28;20023;-77
2021/12/17 01:14:44;;;;;;;14.93;9.93;;;;;;;;;;5116070;28;20427;-77
2021/12/17 01:17:13;;;;;;;13.20;9.30;;;;;;;;;;5115951;28;20016;-79
2021/12/17 01:25:05;;;;;;;12.25;8.93;;;;;;;;;;5116187;28;20050;-83
2021/12/17 01:35:45;;;;;;;12.80;8.45;;;;;;;;;;5115739;28;20031;-83
2021/12/17 01:43:40;;;;;;;10.15;6.97;;;;;;;;;;5115485;28;20420;-86
2021/12/17 01:46:07;;;;;;;10.40;7.03;;;;;;;;;;5114120;28;20059;-83
2021/12/17 01:48:53;;;;;;;9.68;7.30;;;;;;;;;;5114220;28;20036;-81
2021/12/17 01:56:59;;;;;;;10.13;6.47;;;;;;;;;;5115631;28;20030;-84
2021/12/17 01:59:36;;;;;;;9.85;6.78;;;;;;;;;;5115260;28;20053;-79
2021/12/17 02:02:05;;;;;;;8.88;5.95;;;;;;;;;;5114983;28;20019;-82
2021/12/17 02:04:32;;;;;;;10.00;6.20;;;;;;;;;;5114028;28;20432;-83
2021/12/17 02:06:58;;;;;;;9.13;6.25;;;;;;;;;;5114903;28;20123;-84
2021/12/17 02:12:19;;;;;;;8.68;6.38;;;;;;;;;;5114767;28;20035;-85
2021/12/17 02:28:49;;;;;;;12.82;6.88;;;;;;;;;;5114656;28;20069;-81
2021/12/17 02:34:04;;;;;;;10.82;7.18;;;;;;;;;;5114515;28;19911;-81
2021/12/17 02:36:33;;;;;;;8.25;5.93;;;;;;;;;;5114860;28;20049;-80
2021/12/17 02:39:51;;;;;;;10.15;6.72;;;;;;;;;;5113963;28;20038;-78
2021/12/17 02:47:19;;;;;;;10.75;7.43;;;;;;;;;;5114788;28;20047;-80
2021/12/17 02:49:46;;;;;;;9.15;6.43;;;;;;;;;;5114445;28;20024;-83
2021/12/17 02:52:14;;;;;;;11.07;7.32;;;;;;;;;;5114373;28;20016;-79
2021/12/17 02:54:41;;;;;;;9.55;6.30;;;;;;;;;;5114135;28;20025;-78
2021/12/17 02:57:08;;;;;;;9.88;6.80;;;;;;;;;;5114215;28;20462;-82
2021/12/17 02:59:35;;;;;;;9.13;7.13;;;;;;;;;;5114258;28;20051;-82
2021/12/17 03:02:05;;;;;;;9.57;6.88;;;;;;;;;;5114027;28;20024;-76
2021/12/17 03:04:34;;;;;;;9.70;6.70;;;;;;;;;;5114070;28;20030;-78
2021/12/17 03:07:00;;;;;;;8.98;7.25;;;;;;;;;;5113811;28;20088;-79
2021/12/17 03:09:46;;;;;;;9.98;6.85;;;;;;;;;;5113987;28;20070;-83
2021/12/17 03:15:07;;;;;;;7.00;5.20;;;;;;;;;;5113593;28;20072;-81
2021/12/17 03:25:49;;;;;;;11.23;6.25;;;;;;;;;;5114190;28;20034;-81
2021/12/17 03:28:19;;;;;;;11.43;6.32;;;;;;;;;;5112274;28;20032;-81
2021/12/17 03:30:46;;;;;;;10.95;6.97;;;;;;;;;;5112517;28;20529;-81
2021/12/17 03:33:15;;;;;;;9.32;5.47;;;;;;;;;;5112448;28;20027;-79
2021/12/17 03:35:41;;;;;;;8.52;5.88;;;;;;;;;;5113647;28;20024;-80
2021/12/17 03:38:08;;;;;;;9.45;5.63;;;;;;;;;;5112460;28;20028;-78
2021/12/17 03:40:35;;;;;;;7.47;5.60;;;;;;;;;;5113969;28;20510;-79
2021/12/17 03:43:04;;;;;;;9.52;6.43;;;;;;;;;;5112265;28;20062;-81
2021/12/17 03:45:31;;;;;;;8.02;5.20;;;;;;;;;;5112094;28;20504;-81
2021/12/17 03:47:57;;;;;;;8.15;6.32;;;;;;;;;;5113480;28;20031;-79
2021/12/17 03:50:24;;;;;;;8.43;5.65;;;;;;;;;;5113608;28;20082;-79
2021/12/17 03:52:50;;;;;;;8.45;5.75;;;;;;;;;;5115093;28;20464;-80
2021/12/17 03:55:18;;;;;;;8.85;6.13;;;;;;;;;;5117719;28;20062;-77
2021/12/17 03:57:45;;;;;;;9.38;6.88;;;;;;;;;;5117600;28;20056;-78
2021/12/17 04:00:14;;;;;;;10.70;6.72;;;;;;;;;;5117771;28;20102;-82
2021/12/17 04:02:40;;;;;;;8.25;6.38;;;;;;;;;;5117807;28;20121;-78
2021/12/17 04:05:08;;;;;;;9.30;5.68;;;;;;;;;;5117125;28;20080;-80
2021/12/17 04:07:35;;;;;;;11.50;7.10;;;;;;;;;;5117307;28;20478;-80
2021/12/17 04:10:01;;;;;;;8.40;4.97;;;;;;;;;;5117272;28;20023;-75
2021/12/17 04:15:16;;;;;;;6.22;4.63;;;;;;;;;;5109805;28;20478;-81
2021/12/17 04:17:46;;;;;;;6.43;4.57;;;;;;;;;;5117210;28;20027;-80
2021/12/17 04:20:19;;;;;;;7.50;5.15;;;;;;;;;;5117240;28;20024;-82
2021/12/17 04:22:45;;;;;;;6.63;4.50;;;;;;;;;;5117028;28;20025;-80
2021/12/17 04:25:11;;;;;;;7.00;5.18;;;;;;;;;;5117270;28;20416;-79
2021/12/17 04:27:37;;;;;;;6.70;5.20;;;;;;;;;;5116790;28;20482;-79
2021/12/17 04:30:04;;;;;;;6.97;4.20;;;;;;;;;;5115673;28;20024;-82
2021/12/17 04:32:30;;;;;;;7.47;5.40;;;;;;;;;;5117102;28;20478;-82
2021/12/17 04:34:56;;;;;;;7.25;5.40;;;;;;;;;;5115231;28;20363;-82
2021/12/17 04:37:25;;;;;;;9.52;5.30;;;;;;;;;;5116576;28;20101;-81
2021/12/17 04:39:52;;;;;;;8.57;5.72;;;;;;;;;;5116561;28;20451;-79
2021/12/17 04:42:26;;;;;;;7.88;5.35;;;;;;;;;;5116530;28;20072;-79
2021/12/17 04:44:56;;;;;;;6.43;5.45;;;;;;;;;;5116200;28;20040;-83
2021/12/17 04:58:26;;;;;;;7.88;6.28;;;;;;;;;;5116617;28;20115;-82
2021/12/17 05:00:52;;;;;;;7.47;6.30;;;;;;;;;;5114831;28;20035;-80
2021/12/17 05:03:19;;;;;;;7.07;4.82;;;;;;;;;;5115261;28;20020;-84
2021/12/17 05:05:45;;;;;;;8.57;5.30;;;;;;;;;;5116360;28;20031;-80
2021/12/17 05:08:15;;;;;;;8.52;6.28;;;;;;;;;;5117253;28;20031;-82
2021/12/17 05:21:38;;;;;;;11.90;7.55;;;;;;;;;;5109105;28;20036;-80
2021/12/17 05:24:07;;;;;;;11.13;6.85;;;;;;;;;;5115965;28;20071;-76
2021/12/17 05:26:33;;;;;;;8.35;5.30;;;;;;;;;;5116865;28;20080;-81
2021/12/17 05:28:59;;;;;;;7.18;5.30;;;;;;;;;;5117149;28;20032;-80
2021/12/17 05:31:25;;;;;;;10.18;6.32;;;;;;;;;;5115090;28;20465;-79
2021/12/17 05:33:59;;;;;;;9.32;7.82;;;;;;;;;;5115699;28;20069;-80
2021/12/17 05:36:26;;;;;;;10.05;5.78;;;;;;;;;;5115873;27;20035;-80
2021/12/17 05:39:00;;;;;;;11.85;7.75;;;;;;;;;;5115720;28;20063;-82
2021/12/17 05:41:26;;;;;;;;;;;;;;;;;;5118712;27;20031;-81
2021/12/17 05:43:56;;;;;;;10.25;7.75;;;;;;;;;;5116004;28;19916;-83
2021/12/17 05:49:10;;;;;;;10.30;7.22;;;;;;;;;;5123774;27;20039;-78
2021/12/17 05:51:38;;;;;;;9.90;6.85;;;;;;;;;;5136198;27;20465;-85
2021/12/17 05:54:05;;;;;;;11.07;6.70;;;;;;;;;;5125793;27;20027;-79
2021/12/17 05:56:31;;;;;;;11.35;8.63;;;;;;;;;;5124280;27;20039;-82
2021/12/17 05:58:57;;;;;;;14.43;7.90;;;;;;;;;;5114298;28;20374;-80
2021/12/17 06:01:23;;;;;;;10.52;7.30;;;;;;;;;;5114298;28;20063;-82
2021/12/17 06:03:50;;;;;;;8.95;6.40;;;;;;;;;;5113823;28;20063;-79
2021/12/17 06:06:34;;;;;;;8.88;6.60;;;;;;;;;;5115107;28;20023;-79
2021/12/17 06:09:04;;;;;;;8.82;6.22;;;;;;;;;;5115227;28;20063;-81
2021/12/17 06:11:33;;;;;;;8.07;5.55;;;;;;;;;;5114912;28;20035;-84
2021/12/17 06:13:59;;;;;;;10.73;6.63;;;;;;;;;;5114749;28;20099;-79
2021/12/17 06:16:27;;;;;;;8.68;6.30;;;;;;;;;;5115145;28;20024;-83
2021/12/17 06:18:53;;;;;;;9.07;6.38;;;;;;;;;;5114971;28;20535;-82
2021/12/17 06:21:19;;;;;;;9.63;7.10;;;;;;;;;;5113239;28;20023;-83
2021/12/17 06:23:46;;;;;;;12.07;7.57;;;;;;;;;;5113433;28;20454;-83
2021/12/17 06:26:12;;;;;;;12.55;8.45;;;;;;;;;;5114018;28;20106;-84
2021/12/17 06:28:38;;;;;;;11.70;9.10;;;;;;;;;;5114354;28;20043;-83
2021/12/17 06:31:07;;;;;;;10.50;7.25;;;;;;;;;;5112183;28;20430;-78
2021/12/17 06:33:33;;;;;;;10.85;8.52;;;;;;;;;;5112368;28;20378;-80
2021/12/17 06:35:59;;;;;;;14.02;9.15;;;;;;;;;;5113955;28;20072;-80
2021/12/17 06:38:26;;;;;;;15.02;9.95;;;;;;;;;;5113032;28;20092;-83
2021/12/17 06:40:53;;;;;;;16.45;11.45;;;;;;;;;;5108859;28;20118;-81
2021/12/17 06:43:27;;;;;;;12.23;9.95;;;;;;;;;;5111099;28;20035;-83
2021/12/17 06:46:01;;;;;;;16.15;9.95;;;;;;;;;;5111956;28;20051;-83
2021/12/17 06:48:30;;;;;;;13.27;10.52;;;;;;;;;;5112109;28;20051;-82
2021/12/17 07:10:29;;;;;;;15.07;8.70;;;;;;;;;;5113709;28;20082;-82
2021/12/17 07:34:50;;;;;;;9.77;6.93;;;;;;;;;;5116015;28;20031;-84
2021/12/17 07:39:42;;;;;;;9.35;7.03;;;;;;;;;;5115957;28;20118;-81
2021/12/17 07:42:09;;;;;;;8.80;6.07;;;;;;;;;;5116661;28;20105;-81
2021/12/17 07:44:36;;;;;;;11.48;7.80;;;;;;;;;;5116060;28;20390;-86
2021/12/17 07:47:05;;;;;;;12.07;8.98;;;;;;;;;;5115901;28;20455;-82
2021/12/17 07:49:31;;;;;;;9.60;7.63;;;;;;;;;;5115239;28;20047;-85
2021/12/17 07:51:57;;;;;;;10.52;7.30;;;;;;;;;;5113881;28;20024;-81
2021/12/17 07:54:26;;;;;;;13.38;8.50;;;;;;;;;;5115435;28;20031;-80
2021/12/17 07:56:52;;;;;;;11.13;8.07;;;;;;;;;;5115724;28;20038;-83
2021/12/17 07:59:18;;;;;;;8.10;6.25;;;;;;;;;;5115043;28;20024;-83
2021/12/17 08:01:44;;;;;;;12.43;9.32;;;;;;;;;;5115706;28;20028;-82
2021/12/17 08:04:11;;;;;;;9.80;7.50;;;;;;;;;;5114070;28;20105;-79
2021/12/17 08:06:38;;;;;;;11.27;9.05;;;;;;;;;;5102004;27;20477;-80
2021/12/17 08:09:05;;;;;;;9.02;6.93;;;;;;;;;;5120305;27;20032;-78
2021/12/17 08:11:38;;;;;;;10.50;7.88;;;;;;;;;;5113893;28;20019;-80
2021/12/17 08:14:09;;;;;;;10.55;6.47;;;;;;;;;;5115430;28;20020;-82
2021/12/17 08:16:44;;;;;;;9.30;7.03;;;;;;;;;;5114931;28;20035;-83
2021/12/17 08:28:03;;;;;;;10.35;8.00;;;;;;;;;;5114365;27;20054;-80
2021/12/17 08:30:38;;;;;;;10.33;7.20;;;;;;;;;;5114187;28;20084;-78
2021/12/17 08:33:05;;;;;;;12.05;8.90;;;;;;;;;;5114719;28;20059;-80
2021/12/17 08:35:32;;;;;;;8.65;5.90;;;;;;;;;;5114917;28;20572;-78
2021/12/17 08:37:58;;;;;;;3.65;2.85;;;;;;;;;;5113976;28;20034;-77
2021/12/17 08:40:26;;;;;;;4.13;3.13;;;;;;;;;;5114556;28;20454;-79
2021/12/17 08:42:53;;;;;;;6.35;4.72;;;;;;;;;;5114401;28;20431;-80
2021/12/17 08:45:20;;;;;;;6.03;3.60;;;;;;;;;;5114286;28;20044;-80
2021/12/17 08:47:47;;;;;;;3.60;3.03;;;;;;;;;;5113667;28;20055;-81
2021/12/17 08:50:13;;;;;;;4.65;3.92;;;;;;;;;;5114465;28;20038;-83
2021/12/17 08:52:40;;;;;;;8.38;3.65;;;;;;;;;;5114209;28;20023;-79
2021/12/17 08:55:07;;;;;;;4.90;3.63;;;;;;;;;;5114232;28;20034;-77
2021/12/17 08:57:33;;;;;;;5.25;4.22;;;;;;;;;;5113976;28;20055;-80
2021/12/17 09:00:06;;;;;;;5.13;3.03;;;;;;;;;;5114089;28;20058;-83
2021/12/17 09:02:35;;;;;;;4.38;3.65;;;;;;;;;;5114029;28;20028;-77
2021/12/17 09:05:01;;;;;;;6.15;4.40;;;;;;;;;;5112758;28;20036;-79
2021/12/17 09:07:27;;;;;;;4.65;3.10;;;;;;;;;;5113261;28;20118;-77
2021/12/17 09:09:53;;;;;;;4.60;3.17;;;;;;;;;;5113702;28;20032;-77
2021/12/17 09:12:20;;;;;;;4.40;3.65;;;;;;;;;;5113594;28;20131;-79
2021/12/17 09:14:46;;;;;;;6.38;4.45;;;;;;;;;;5113754;28;20102;-80
2021/12/17 09:17:12;;;;;;;3.55;2.70;;;;;;;;;;5113897;28;20081;-77
2021/12/17 09:19:41;;;;;;;5.38;3.72;;;;;;;;;;5113151;28;20490;-75
2021/12/17 09:22:07;;;;;;;8.98;6.47;;;;;;;;;;5113100;28;20028;-77
2021/12/17 09:24:33;;;;;;;4.07;3.10;;;;;;;;;;5113446;28;20062;-78
2021/12/17 09:27:00;;;;;;;12.73;9.07;;;;;;;;;;5114056;28;20464;-77
2021/12/17 09:29:27;;;;;;;7.45;5.15;;;;;;;;;;5113819;28;20031;-77
2021/12/17 09:31:55;;;;;;;7.07;4.35;;;;;;;;;;5112240;27;20050;-78
2021/12/17 09:34:22;;;;;;;3.85;3.20;;;;;;;;;;5113298;28;20032;-78
2021/12/17 09:36:48;;;;;;;7.93;5.82;;;;;;;;;;5113308;28;20031;-79
2021/12/17 09:39:14;;;;;;;5.63;4.13;;;;;;;;;;5112795;28;20077;-78
2021/12/17 09:41:50;;;;;;;9.52;7.25;;;;;;;;;;5113250;28;20015;-79
2021/12/17 09:44:17;;;;;;;4.10;3.40;;;;;;;;;;5113278;28;20031;-78
2021/12/17 09:46:44;;;;;;;5.80;4.32;;;;;;;;;;5112912;28;20047;-84
2021/12/17 09:49:11;;;;;;;6.90;4.85;;;;;;;;;;5111516;28;20020;-84
2021/12/17 09:51:43;;;;;;;6.72;4.93;;;;;;;;;;5113318;28;20153;-79
2021/12/17 09:54:10;;;;;;;5.35;3.60;;;;;;;;;;5113082;28;20032;-79
2021/12/17 09:56:36;;;;;;;5.35;4.50;;;;;;;;;;5111977;28;20028;-78
2021/12/17 09:59:03;;;;;;;5.47;4.65;;;;;;;;;;5111252;28;20034;-77
2021/12/17 10:01:29;;;;;;;9.05;6.15;;;;;;;;;;5112923;28;20098;-77
2021/12/17 10:04:14;;;;;;;4.82;3.83;;;;;;;;;;5112884;28;20038;-79
2021/12/17 10:06:40;;;;;;;4.63;3.05;;;;;;;;;;5112615;28;20027;-79
2021/12/17 10:09:07;;;;;;;6.32;5.35;;;;;;;;;;5112220;28;20099;-82
2021/12/17 10:11:33;;;;;;;8.48;7.00;;;;;;;;;;5104591;28;20479;-78
2021/12/17 10:14:18;;;;;;;5.97;4.35;;;;;;;;;;5092360;28;20379;-73
2021/12/17 10:16:45;;;;;;;5.97;3.97;;;;;;;;;;5105553;28;20065;-81
2021/12/17 10:19:11;;;;;;;6.88;4.15;;;;;;;;;;5111609;28;20161;-83
2021/12/17 10:21:45;;;;;;;4.63;3.72;;;;;;;;;;5113107;28;20035;-80
2021/12/17 10:24:21;;;;;;;5.73;3.80;;;;;;;;;;5112197;28;20053;-79
2021/12/17 10:26:48;;;;;;;7.72;5.15;;;;;;;;;;5112347;28;20034;-80
2021/12/17 10:29:20;;;;;;;8.50;4.82;;;;;;;;;;5112229;28;20032;-77
2021/12/17 10:31:55;;;;;;;5.13;3.35;;;;;;;;;;5111382;28;20416;-79
2021/12/17 10:34:21;;;;;;;9.45;5.78;;;;;;;;;;5091368;28;20035;-81
2021/12/17 10:36:47;;;;;;;4.53;2.90;;;;;;;;;;5104249;28;20027;-79
2021/12/17 10:39:23;;;;;;;8.15;5.32;;;;;;;;;;5111771;28;20049;-80
2021/12/17 10:41:49;;;;;;;8.32;5.55;;;;;;;;;;5105941;28;20056;-80
2021/12/17 10:44:16;;;;;;;11.85;6.75;;;;;;;;;;5109361;28;20465;-81
2021/12/17 10:47:05;;;;;;;15.50;9.95;;;;;;;;;;5111758;28;20058;-78
2021/12/17 10:49:34;;;;;;;3.53;2.22;;;;;;;;;;5110781;28;20103;-77
2021/12/17 10:52:15;;;;;;;7.65;4.57;;;;;;;;;;5110829;28;20027;-78
2021/12/17 10:54:41;;;;;;;8.38;4.85;;;;;;;;;;5111318;28;20043;-79
2021/12/17 10:57:08;;;;;;;6.35;3.42;;;;;;;;;;5111366;28;20089;-77
2021/12/17 10:59:40;;;;;;;9.32;5.32;;;;;;;;;;5112107;28;20039;-80
2021/12/17 11:02:13;;;;;;;3.47;1.98;;;;;;;;;;5110821;28;20027;-79
2021/12/17 11:04:41;;;;;;;5.03;3.25;;;;;;;;;;5111382;28;20024;-78
2021/12/17 11:07:08;;;;;;;10.23;5.90;;;;;;;;;;5111407;28;20027;-77
2021/12/17 11:09:54;;;;;;;3.78;2.40;;;;;;;;;;5110009;28;20043;-77
2021/12/17 11:12:28;;;;;;;2.67;1.98;;;;;;;;;;5089645;28;20035;-79
2021/12/17 11:14:56;;;;;;;2.28;1.58;;;;;;;;;;5099591;28;20038;-80
2021/12/17 11:17:25;;;;;;;4.47;2.80;;;;;;;;;;5111695;28;20111;-80
2021/12/17 11:19:57;;;;;;;9.13;2.78;;;;;;;;;;5111510;28;20055;-77
2021/12/17 11:22:26;;;;;;;6.50;3.35;;;;;;;;;;5093732;28;20034;-81
2021/12/17 11:24:56;;;;;;;4.22;2.80;;;;;;;;;;5111281;28;20039;-84
2021/12/17 11:27:23;;;;;;;5.93;3.13;;;;;;;;;;5111703;28;20036;-78
2021/12/17 11:29:49;;;;;;;5.55;3.65;;;;;;;;;;5110561;28;20492;-83
2021/12/17 11:32:18;;;;;;;3.70;2.70;;;;;;;;;;5110195;28;20497;-77
2021/12/17 11:34:44;;;;;;;3.47;2.65;;;;;;;;;;5113091;28;20036;-82
2021/12/17 11:37:11;;;;;;;4.97;2.80;;;;;;;;;;5111062;28;20020;-77
2021/12/17 11:39:42;;;;;;;9.93;4.35;;;;;;;;;;5110267;28;20447;-78
2021/12/17 11:42:29;;;;;;;8.00;6.15;;;;;;;;;;5109591;28;20076;-77
2021/12/17 11:47:41;;;;;;;4.85;3.50;;;;;;;;;;5110900;28;20113;-78
2021/12/17 11:52:54;;;;;;;8.73;4.90;;;;;;;;;;5108541;28;20443;-78
2021/12/17 11:55:26;;;;;;;9.18;6.47;;;;;;;;;;5110191;28;20455;-79
2021/12/17 11:57:58;;;;;;;5.88;3.72;;;;;;;;;;5107956;28;20040;-76
2021/12/17 12:00:39;;;;;;;5.47;3.55;;;;;;;;;;5110354;28;20034;-81
2021/12/17 12:03:17;;;;;;;6.28;4.78;;;;;;;;;;5111502;28;20032;-83
2021/12/17 12:05:44;;;;;;;4.63;3.17;;;;;;;;;;5108458;28;20035;-77
2021/12/17 12:08:31;;;;;;;3.42;2.90;;;;;;;;;;5128351;28;20071;-79
2021/12/17 12:11:09;;;;;;;4.28;3.63;;;;;;;;;;5131531;27;20038;-80
2021/12/17 12:13:38;;;;;;;8.13;6.75;;;;;;;;;;5133965;27;20019;-76
2021/12/17 12:16:16;;;;;;;11.57;6.53;;;;;;;;;;5135475;27;20039;-71
2021/12/17 12:18:46;;;;;;;6.95;4.72;;;;;;;;;;5117075;27;20031;-84
2021/12/17 12:21:15;;;;;;;6.88;5.10;;;;;;;;;;5136272;27;20055;-80
2021/12/17 12:23:43;;;;;;;8.80;5.28;;;;;;;;;;5135421;27;20030;-81
2021/12/17 12:26:14;;;;;;;5.93;3.80;;;;;;;;;;5135400;27;20027;-79
2021/12/17 12:28:41;;;;;;;10.57;5.80;;;;;;;;;;5117731;27;20421;-80
2021/12/17 12:31:09;;;;;;;8.32;4.95;;;;;;;;;;5113367;28;20020;-77
2021/12/17 12:33:35;;;;;;;8.10;5.20;;;;;;;;;;5112550;28;20134;-77
2021/12/17 12:36:01;;;;;;;8.20;5.47;;;;;;;;;;5113377;28;20027;-75
2021/12/17 12:38:30;;;;;;;7.30;3.70;;;;;;;;;;5116172;27;20493;-79
2021/12/17 12:40:58;;;;;;;6.72;4.25;;;;;;;;;;5114396;27;20081;-76
2021/12/17 12:43:28;;;;;;;7.65;5.00;;;;;;;;;;5116322;27;20066;-82
2021/12/17 12:45:54;;;;;;;9.60;7.40;;;;;;;;;;5093422;28;20131;-76
2021/12/17 12:48:30;;;;;;;13.27;10.18;;;;;;;;;;5113282;28;20028;-77
2021/12/17 12:51:16;;;;;;;12.05;8.40;;;;;;;;;;5115199;28;20026;-85
2021/12/17 12:53:47;;;;;;;5.57;3.00;;;;;;;;;;5114620;28;20019;-80
2021/12/17 12:56:18;;;;;;;8.23;5.90;;;;;;;;;;5107534;27;20024;-80
2021/12/17 12:58:48;;;;;;;6.70;5.13;;;;;;;;;;5120906;27;20027;-79
2021/12/17 13:01:16;;;;;;;5.28;3.15;;;;;;;;;;5107117;27;20058;-77
2021/12/17 13:03:44;;;;;;;10.10;5.45;;;;;;;;;;5115058;28;20036;-76
2021/12/17 13:06:16;;;;;;;8.13;5.80;;;;;;;;;;5098353;28;20030;-80
2021/12/17 13:08:42;;;;;;;4.63;2.65;;;;;;;;;;5114808;28;20040;-78
2021/12/17 13:11:12;;;;;;;5.85;4.82;;;;;;;;;;5115049;28;20107;-83
2021/12/17 13:13:52;;;;;;;8.65;5.28;;;;;;;;;;5096415;28;20023;-79
2021/12/17 13:24:21;;;;;;;10.55;8.23;;;;;;;;;;5114574;28;20031;-81
2021/12/17 13:26:49;;;;;;;8.85;7.35;;;;;;;;;;5114101;28;20024;-84
2021/12/17 13:29:24;;;;;;;5.22;4.43;;;;;;;;;;5096582;28;20460;-79
2021/12/17 13:31:52;;;;;;;4.95;4.28;;;;;;;;;;5129999;27;20110;-81
2021/12/17 13:34:25;;;;;;;6.45;5.07;;;;;;;;;;5135210;27;20031;-71
2021/12/17 13:37:03;;;;;;;8.17;6.13;;;;;;;;;;5135087;27;20024;-86
2021/12/17 13:49:02;;;;;;;10.65;8.35;;;;;;;;;;5110485;27;20082;-79
2021/12/17 13:51:29;;;;;;;8.80;7.15;;;;;;;;;;5113636;28;20482;-76
2021/12/17 13:53:57;;;;;;;12.43;8.65;;;;;;;;;;5113212;28;20137;-77
2021/12/17 13:56:24;;;;;;;10.98;9.15;;;;;;;;;;5113681;28;20095;-78
2021/12/17 13:58:50;;;;;;;5.88;5.00;;;;;;;;;;5113461;28;20034;-83
2021/12/17 14:01:22;;;;;;;9.25;6.00;;;;;;;;;;5113666;28;20051;-83
2021/12/17 14:03:48;;;;;;;10.68;8.23;;;;;;;;;;5114186;28;20031;-85
2021/12/17 14:06:22;;;;;;;11.00;9.15;;;;;;;;;;5095596;28;20428;-77
2021/12/17 14:08:48;;;;;;;8.75;6.20;;;;;;;;;;5095998;28;20051;-78
2021/12/17 14:11:34;;;;;;;12.45;10.50;;;;;;;;;;5114157;28;20035;-78
2021/12/17 14:14:00;;;;;;;8.77;7.60;;;;;;;;;;5114028;28;20019;-75
2021/12/17 14:16:37;;;;;;;10.40;7.88;;;;;;;;;;5113788;28;20046;-76
2021/12/17 14:19:03;;;;;;;9.27;5.97;;;;;;;;;;5113554;28;20130;-79
2021/12/17 14:21:36;;;;;;;10.07;8.27;;;;;;;;;;5113894;28;20030;-86
2021/12/17 14:24:03;;;;;;;10.90;8.48;;;;;;;;;;5113848;28;20045;-78
2021/12/17 14:26:33;;;;;;;13.30;10.88;;;;;;;;;;5113395;28;20034;-79
2021/12/17 14:29:12;;;;;;;13.25;10.77;;;;;;;;;;5113474;28;20043;-80
2021/12/17 14:31:38;;;;;;;16.88;13.48;;;;;;;;;;5095887;28;20419;-80
2021/12/17 14:34:05;;;;;;;21.20;15.80;;;;;;;;;;5113786;28;20024;-81
2021/12/17 14:36:36;;;;;;;11.73;9.48;;;;;;;;;;5114041;28;20028;-80
2021/12/17 14:39:16;;;;;;;8.15;5.93;;;;;;;;;;5114729;28;20012;-84
2021/12/17 14:41:50;;;;;;;10.02;7.93;;;;;;;;;;5095752;28;20023;-81
2021/12/17 14:44:33;;;;;;;6.80;5.50;;;;;;;;;;5095342;28;20038;-78
2021/12/17 14:47:10;;;;;;;12.60;9.05;;;;;;;;;;5113512;28;20543;-78
2021/12/17 15:00:28;;;;;;;8.40;5.75;;;;;;;;;;5114012;28;20367;-74
2021/12/17 15:03:00;;;;;;;10.60;7.60;;;;;;;;;;5114168;28;20039;-77
2021/12/17 15:05:28;;;;;;;8.10;6.38;;;;;;;;;;5095998;28;20287;-79
2021/12/17 15:07:55;;;;;;;9.07;7.10;;;;;;;;;;5114895;28;20100;-79
2021/12/17 15:10:23;;;;;;;15.68;11.20;;;;;;;;;;5114365;28;20027;-81
2021/12/17 15:12:57;;;;;;;18.77;13.05;;;;;;;;;;5114082;28;20097;-80
2021/12/17 15:15:24;;;;;;;21.35;15.63;;;;;;;;;;5095780;28;20035;-79
2021/12/17 15:17:51;;;;;;;22.98;13.07;;;;;;;;;;5112007;28;20102;-80
2021/12/17 15:20:20;;;;;;;14.38;11.13;;;;;;;;;;5112920;28;20023;-78
2021/12/17 15:22:47;;;;;;;11.60;9.52;;;;;;;;;;5112886;28;20470;-81
2021/12/17 15:25:16;;;;;;;12.07;8.82;;;;;;;;;;5113617;28;20085;-80
2021/12/17 15:27:43;;;;;;;9.57;7.97;;;;;;;;;;5113064;28;20032;-78
2021/12/17 15:30:11;;;;;;;13.00;9.65;;;;;;;;;;5113198;28;20027;-82
2021/12/17 15:32:37;;;;;;;9.57;8.00;;;;;;;;;;5113089;28;20030;-80
2021/12/17 15:35:04;;;;;;;9.82;7.85;;;;;;;;;;5113189;28;20110;-82
2021/12/17 15:37:30;;;;;;;15.57;10.70;;;;;;;;;;5113894;28;20019;-82
2021/12/17 15:39:56;;;;;;;8.93;6.15;;;;;;;;;;5094595;28;20034;-82
2021/12/17 15:42:25;;;;;;;10.48;6.97;;;;;;;;;;5112952;28;20106;-79
2021/12/17 15:44:54;;;;;;;10.25;6.20;;;;;;;;;;5112859;28;20020;-78
2021/12/17 15:47:20;;;;;;;9.82;7.40;;;;;;;;;;5113457;28;20089;-80
2021/12/17 15:49:46;;;;;;;10.13;5.72;;;;;;;;;;5116943;28;20192;-79
2021/12/17 15:52:12;;;;;;;8.30;6.22;;;;;;;;;;5117418;28;20027;-85
2021/12/17 15:54:39;;;;;;;8.55;6.03;;;;;;;;;;5117045;28;20030;-77
2021/12/17 15:57:06;;;;;;;7.65;5.50;;;;;;;;;;5098293;28;20375;-83
2021/12/17 15:59:35;;;;;;;6.68;4.13;;;;;;;;;;5117415;28;20024;-82
2021/12/17 16:02:03;;;;;;;7.85;6.35;;;;;;;;;;5117003;28;20840;-83
2021/12/17 16:04:32;;;;;;;7.97;5.72;;;;;;;;;;5098853;28;20023;-80
2021/12/17 16:07:00;;;;;;;8.32;5.78;;;;;;;;;;5116670;28;20031;-82
2021/12/17 16:22:41;;;;;;;6.15;4.78;;;;;;;;;;5116847;28;20034;-80
2021/12/17 16:25:08;;;;;;;8.27;6.07;;;;;;;;;;5116322;28;20172;-76
2021/12/17 16:27:34;;;;;;;7.53;5.57;;;;;;;;;;5098475;28;20382;-82
2021/12/17 16:30:00;;;;;;;6.20;5.18;;;;;;;;;;5116898;28;20024;-83
2021/12/17 16:32:26;;;;;;;6.13;4.70;;;;;;;;;;5116113;28;20544;-76
2021/12/17 16:34:52;;;;;;;5.80;4.20;;;;;;;;;;5116330;28;20055;-81
2021/12/17 16:37:21;;;;;;;7.13;4.10;;;;;;;;;;5116509;28;20026;-81
2021/12/17 16:39:47;;;;;;;6.38;4.40;;;;;;;;;;5116401;28;20047;-80
2021/12/17 16:42:16;;;;;;;6.60;4.63;;;;;;;;;;5116064;28;20028;-77
2021/12/17 16:47:34;;;;;;;7.55;5.13;;;;;;;;;;5116431;28;20085;-77
2021/12/17 16:50:01;;;;;;;5.82;4.05;;;;;;;;;;5097634;28;20034;-78
2021/12/17 16:52:28;;;;;;;6.72;4.60;;;;;;;;;;5116742;28;20107;-77
2021/12/17 16:54:58;;;;;;;7.25;4.63;;;;;;;;;;5101506;28;20146;-79
2021/12/17 16:57:25;;;;;;;5.13;3.63;;;;;;;;;;5099209;28;20027;-77
2021/12/17 16:59:51;;;;;;;10.00;7.07;;;;;;;;;;5114888;28;20069;-79
2021/12/17 17:02:17;;;;;;;8.73;6.00;;;;;;;;;;5115278;28;20032;-79
2021/12/17 17:04:44;;;;;;;8.73;5.68;;;;;;;;;;5115920;28;20433;-75
2021/12/17 17:07:10;;;;;;;8.88;6.43;;;;;;;;;;5115293;28;20031;-83
2021/12/17 17:09:36;;;;;;;9.60;5.95;;;;;;;;;;5115634;28;20386;-80
2021/12/17 17:12:05;;;;;;;11.73;7.45;;;;;;;;;;5097256;28;20034;-81
2021/12/17 17:14:32;;;;;;;5.63;4.75;;;;;;;;;;5115054;28;20051;-80
2021/12/17 17:16:59;;;;;;;6.82;4.82;;;;;;;;;;5116410;28;20036;-77
2021/12/17 17:19:25;;;;;;;9.73;7.00;;;;;;;;;;5116088;28;20110;-81
2021/12/17 17:21:52;;;;;;;8.93;6.43;;;;;;;;;;5116050;28;20426;-84
2021/12/17 17:24:20;;;;;;;8.60;6.13;;;;;;;;;;5116324;28;20137;-80
2021/12/17 17:26:46;;;;;;;10.90;6.20;;;;;;;;;;5116205;28;20036;-87
2021/12/17 17:29:13;;;;;;;9.52;6.80;;;;;;;;;;5097802;28;20093;-82
2021/12/17 17:31:39;;;;;;;9.15;5.45;;;;;;;;;;5116276;28;20031;-79
2021/12/17 17:34:08;;;;;;;6.70;4.60;;;;;;;;;;5116237;28;20033;-82
2021/12/17 17:36:35;;;;;;;8.07;6.10;;;;;;;;;;5115842;28;20059;-78
2021/12/17 17:39:01;;;;;;;10.68;7.38;;;;;;;;;;5115466;28;20019;-83
2021/12/17 17:41:27;;;;;;;8.05;6.30;;;;;;;;;;5116020;28;20031;-85
2021/12/17 17:43:54;;;;;;;9.35;6.43;;;;;;;;;;5116676;28;20501;-86
2021/12/17 17:46:21;;;;;;;10.57;7.50;;;;;;;;;;5111992;28;20019;-83
2021/12/17 17:48:47;;;;;;;9.18;6.38;;;;;;;;;;5114932;28;20067;-77
2021/12/17 17:51:14;;;;;;;6.65;5.45;;;;;;;;;;5096759;28;20039;-80
2021/12/17 17:53:48;;;;;;;9.13;6.85;;;;;;;;;;5115196;28;20089;-83
2021/12/17 17:56:17;;;;;;;8.32;6.40;;;;;;;;;;5114771;28;20055;-80
2021/12/17 17:58:44;;;;;;;9.55;6.70;;;;;;;;;;5096749;28;20031;-82
2021/12/17 18:01:10;;;;;;;9.38;6.40;;;;;;;;;;5115465;28;20068;-79
2021/12/17 18:03:38;;;;;;;8.52;6.20;;;;;;;;;;5115279;28;20024;-78
2021/12/17 18:06:06;;;;;;;8.05;6.03;;;;;;;;;;5115118;28;20056;-79
2021/12/17 18:08:38;;;;;;;7.38;5.28;;;;;;;;;;5115447;28;20039;-81
2021/12/17 18:11:04;;;;;;;6.75;5.25;;;;;;;;;;5114889;28;20497;-85
2021/12/17 18:13:33;;;;;;;7.35;5.38;;;;;;;;;;5113222;28;20057;-77
2021/12/17 18:16:01;;;;;;;6.25;4.65;;;;;;;;;;5096212;28;20395;-79
2021/12/17 18:21:11;;;;;;;;;;;;;;;;;;5115968;28;20494;-84
2021/12/17 18:23:38;;;;;;;9.23;6.40;;;;;;;;;;5115127;28;19903;-79
2021/12/17 18:26:04;;;;;;;8.10;4.47;;;;;;;;;;5114941;28;20024;-80
2021/12/17 18:28:30;;;;;;;10.10;7.60;;;;;;;;;;5114604;28;20035;-79
2021/12/17 18:30:56;;;;;;;13.00;9.80;;;;;;;;;;5115112;28;20049;-81
2021/12/17 18:33:22;;;;;;;9.60;6.70;;;;;;;;;;5114755;28;20019;-82
2021/12/17 18:35:51;;;;;;;11.50;8.40;;;;;;;;;;5114993;28;20055;-81